METAR Data
IDs: Format: Raw Decoded Include TAF

Data at: 0940 UTC 18 Jan 2022

KPWK 180852Z AUTO 26003KT 9SM FEW100 M06/M09 A2998 RMK AO2 SLP160 T10561089 53006